Time;durP1;ratioP1;P1;durP2;ratioP2;P2;SDS_P1;SDS_P2;PMS_P1;PMS_P2;Temp;Humidity;BMP_temperature;BMP_pressure;BME280_temperature;BME280_humidity;BME280_pressure;Samples;Min_cycle;Max_cycle;Signal;HPM_P1;HPM_P2
2022/09/30 00:01:52;;;;;;;4.60;4.18;;;;;;;8.69;100.00;100755.72;4883807;29;20506;-78
2022/09/30 00:04:23;;;;;;;5.03;4.40;;;;;;;8.73;100.00;100749.63;4886867;29;20040;-78
2022/09/30 00:06:52;;;;;;;5.85;4.95;;;;;;;8.76;100.00;100747.91;4910415;29;20059;-78
2022/09/30 00:09:21;;;;;;;6.45;4.45;;;;;;;8.79;100.00;100747.06;4908864;29;20398;-77
2022/09/30 00:11:50;;;;;;;5.65;4.25;;;;;;;8.79;100.00;100741.81;4912655;29;20489;-78
2022/09/30 00:14:21;;;;;;;5.22;4.80;;;;;;;8.80;100.00;100750.56;4838735;29;20506;-78
2022/09/30 00:16:52;;;;;;;4.40;4.05;;;;;;;8.80;100.00;100745.31;4890618;29;20055;-77
2022/09/30 00:19:20;;;;;;;4.47;3.97;;;;;;;8.79;100.00;100747.06;4889246;29;20044;-77
2022/09/30 00:21:49;;;;;;;7.88;4.88;;;;;;;8.77;100.00;100751.41;4870200;29;20055;-77
2022/09/30 00:24:17;;;;;;;4.40;4.00;;;;;;;8.74;100.00;100741.75;4908993;29;20048;-77
2022/09/30 00:26:45;;;;;;;4.70;3.70;;;;;;;8.73;100.00;100739.13;4892702;29;20040;-77
2022/09/30 00:29:14;;;;;;;5.90;4.55;;;;;;;8.72;100.00;100745.25;4896934;29;20052;-78
2022/09/30 00:31:42;;;;;;;4.22;3.88;;;;;;;8.70;100.00;100736.47;4881374;29;20276;-78
2022/09/30 00:34:11;;;;;;;8.50;4.60;;;;;;;8.68;100.00;100743.47;4862524;29;20040;-78
2022/09/30 00:36:44;;;;;;;5.00;3.80;;;;;;;8.66;100.00;100738.19;4900028;29;20044;-77
2022/09/30 00:39:15;;;;;;;4.30;3.93;;;;;;;8.65;100.00;100744.28;4880802;29;20059;-77
2022/09/30 00:41:46;;;;;;;6.70;4.50;;;;;;;8.64;100.00;100734.69;4888452;29;20785;-77
2022/09/30 00:44:43;;;;;;;4.13;3.75;;;;;;;8.62;100.00;100739.03;4890241;29;20464;-77
2022/09/30 00:47:33;;;;;;;4.72;4.20;;;;;;;8.61;100.00;100732.00;4885135;29;20048;-77
2022/09/30 00:50:32;;;;;;;7.95;4.07;;;;;;;8.61;100.00;100745.13;4880148;29;20059;-78
2022/09/30 00:53:07;;;;;;;4.63;4.22;;;;;;;8.63;100.00;100756.53;4904962;29;20059;-78
2022/09/30 00:55:40;;;;;;;5.95;3.95;;;;;;;8.64;100.00;100768.81;4905402;29;20067;-78
2022/09/30 00:58:13;;;;;;;5.10;4.68;;;;;;;8.67;100.00;100760.09;4892086;29;20494;-77
2022/09/30 01:00:42;;;;;;;5.22;4.72;;;;;;;8.68;100.00;100767.97;4889907;29;20284;-78
2022/09/30 01:03:11;;;;;;;4.78;4.18;;;;;;;8.68;100.00;100764.47;4884248;29;20043;-77
2022/09/30 01:05:40;;;;;;;6.05;4.38;;;;;;;8.68;100.00;100767.13;4892810;29;20055;-77
2022/09/30 01:08:10;;;;;;;6.35;4.35;;;;;;;8.68;100.00;100761.84;4887282;29;20130;-78
2022/09/30 01:10:43;;;;;;;5.60;4.30;;;;;;;8.67;100.00;100760.09;4885084;29;20103;-78
2022/09/30 01:13:14;;;;;;;;;;;;;;;8.65;100.00;100760.06;4908327;29;20055;-77
2022/09/30 01:16:08;;;;;;;4.95;4.22;;;;;;;8.61;100.00;100760.91;4907083;29;19950;-77
2022/09/30 01:19:31;;;;;;;5.82;4.18;;;;;;;8.57;100.00;100767.88;4846869;29;20251;-77
2022/09/30 01:22:29;;;;;;;4.90;4.40;;;;;;;8.53;100.00;100771.34;4842714;29;20048;-77
2022/09/30 01:25:14;;;;;;;7.70;5.13;;;;;;;8.50;100.00;100778.28;4899881;29;20048;-78
2022/09/30 01:28:01;;;;;;;5.47;4.18;;;;;;;8.47;100.00;100781.78;4908608;29;20133;-77
2022/09/30 01:31:00;;;;;;;7.45;4.53;;;;;;;8.44;100.00;100794.00;4888843;29;20649;-77
2022/09/30 01:33:34;;;;;;;4.93;4.20;;;;;;;8.42;100.00;100777.34;4859298;29;20260;-77
2022/09/30 01:36:15;;;;;;;4.47;3.83;;;;;;;8.39;100.00;100771.16;4884477;29;20052;-77
2022/09/30 01:38:47;;;;;;;;;;;;;;;8.36;100.00;100772.88;4884126;29;20091;-77
2022/09/30 01:41:27;;;;;;;4.68;4.28;;;;;;;8.31;100.00;100771.94;4891919;29;19930;-78
2022/09/30 01:44:06;;;;;;;5.97;4.47;;;;;;;8.27;100.00;100778.03;4892635;29;20056;-78
2022/09/30 01:46:43;;;;;;;5.22;4.07;;;;;;;8.23;100.00;100778.84;4904701;29;20330;-77
2022/09/30 01:49:40;;;;;;;4.78;4.28;;;;;;;8.18;100.00;100781.41;4863447;29;20051;-78
2022/09/30 01:52:15;;;;;;;7.47;4.55;;;;;;;8.15;100.00;100771.75;4897454;29;20410;-78
2022/09/30 01:55:11;;;;;;;4.80;4.28;;;;;;;8.12;100.00;100774.34;4892168;29;20346;-77
2022/09/30 01:58:02;;;;;;;4.72;4.25;;;;;;;8.08;100.00;100777.78;4904313;29;20227;-77
2022/09/30 02:00:35;;;;;;;7.75;3.80;;;;;;;8.04;100.00;100770.75;4887318;29;20618;-77
2022/09/30 02:03:18;;;;;;;6.22;4.72;;;;;;;8.02;100.00;100776.84;4909780;29;20461;-78
2022/09/30 02:06:07;;;;;;;4.68;4.28;;;;;;;7.99;100.00;100783.78;4873410;29;20063;-78
2022/09/30 02:08:46;;;;;;;4.50;4.05;;;;;;;7.96;100.00;100777.66;4888745;29;20046;-78
2022/09/30 02:11:26;;;;;;;6.80;4.35;;;;;;;7.94;100.00;100774.09;4900387;29;20059;-77
2022/09/30 02:14:03;;;;;;;5.43;3.92;;;;;;;7.92;100.00;100784.59;4901822;29;20068;-77
2022/09/30 02:16:38;;;;;;;4.85;4.38;;;;;;;7.89;100.00;100787.19;4904094;29;20052;-77
2022/09/30 02:19:22;;;;;;;6.20;4.85;;;;;;;7.87;100.00;100783.66;4906236;29;20048;-77
2022/09/30 02:22:02;;;;;;;5.60;5.10;;;;;;;7.84;100.00;100788.84;4873439;29;20056;-77
2022/09/30 02:24:37;;;;;;;4.85;4.45;;;;;;;7.83;100.00;100796.72;4898677;29;20607;-77
2022/09/30 02:27:14;;;;;;;5.72;4.82;;;;;;;7.79;100.00;100794.03;4884338;29;20051;-78
2022/09/30 02:29:49;;;;;;;5.85;4.85;;;;;;;7.78;100.00;100792.28;4902994;29;20075;-77
2022/09/30 02:32:32;;;;;;;5.78;5.28;;;;;;;7.76;100.00;100796.63;4906227;29;20059;-77
2022/09/30 02:35:10;;;;;;;5.20;4.40;;;;;;;7.76;100.00;100806.22;4908704;29;20063;-77
2022/09/30 02:37:51;;;;;;;5.15;4.28;;;;;;;7.73;100.00;100806.19;4861306;29;20240;-78
2022/09/30 02:40:23;;;;;;;6.70;5.15;;;;;;;7.70;100.00;100806.16;4906027;29;20059;-78
2022/09/30 02:42:55;;;;;;;5.05;4.60;;;;;;;7.68;100.00;100808.75;4890329;29;20060;-78
2022/09/30 02:45:23;;;;;;;6.28;4.43;;;;;;;7.67;100.00;100814.84;4872976;29;20052;-78
2022/09/30 02:48:17;;;;;;;4.70;4.30;;;;;;;7.65;100.00;100813.06;4876074;29;20048;-78
2022/09/30 02:50:51;;;;;;;4.72;4.32;;;;;;;7.62;100.00;100811.28;4911882;29;20059;-77
2022/09/30 02:53:27;;;;;;;4.45;4.05;;;;;;;7.60;100.00;100807.78;4869292;29;20056;-78
2022/09/30 02:56:13;;;;;;;4.95;4.55;;;;;;;7.57;100.00;100812.97;4905457;29;20406;-77
2022/09/30 02:58:44;;;;;;;4.80;4.20;;;;;;;7.56;100.00;100803.31;4906993;29;20063;-78
2022/09/30 03:01:15;;;;;;;6.50;4.63;;;;;;;7.54;100.00;100808.56;4910312;29;20044;-78
2022/09/30 03:03:45;;;;;;;;;;;;;;;7.52;100.00;100812.88;4894001;29;20044;-77
2022/09/30 03:06:13;;;;;;;7.00;5.00;;;;;;;7.49;100.00;100815.47;4909406;29;19933;-77
2022/09/30 03:08:42;;;;;;;5.00;4.40;;;;;;;7.49;100.00;100806.72;4859901;29;20040;-78
2022/09/30 03:11:17;;;;;;;6.75;4.53;;;;;;;7.46;100.00;100807.53;4892137;29;20051;-78
2022/09/30 03:14:03;;;;;;;4.60;4.20;;;;;;;7.46;100.00;100807.53;4903981;29;20260;-77
2022/09/30 03:16:56;;;;;;;5.00;4.55;;;;;;;7.45;100.00;100804.88;4890050;29;20255;-77
2022/09/30 03:19:33;;;;;;;5.57;4.32;;;;;;;7.44;100.00;100801.41;4887096;29;20072;-77
2022/09/30 03:22:24;;;;;;;5.07;4.68;;;;;;;7.42;100.00;100798.75;4894109;29;20047;-77
2022/09/30 03:24:58;;;;;;;3.95;3.55;;;;;;;7.39;100.00;100811.81;4892262;29;20059;-77
2022/09/30 03:28:01;;;;;;;4.85;4.32;;;;;;;7.37;100.00;100810.91;4906835;29;20693;-77
2022/09/30 03:30:34;;;;;;;4.60;4.30;;;;;;;7.34;100.00;100810.88;4842006;29;20060;-78
2022/09/30 03:33:20;;;;;;;5.05;4.20;;;;;;;7.31;100.00;100823.91;4911531;29;20067;-78
2022/09/30 03:35:58;;;;;;;6.60;6.00;;;;;;;7.29;100.00;100820.38;4893106;29;20634;-77
2022/09/30 03:38:43;;;;;;;10.45;7.63;;;;;;;7.28;100.00;100817.72;4876599;29;20040;-77
2022/09/30 03:41:45;;;;;;;10.98;8.05;;;;;;;7.25;100.00;100823.81;4892659;29;20051;-77
2022/09/30 03:44:40;;;;;;;6.95;5.97;;;;;;;7.23;100.00;100826.41;4902031;29;20047;-77
2022/09/30 03:47:13;;;;;;;5.80;5.20;;;;;;;7.22;100.00;100829.00;4900116;29;20524;-78
2022/09/30 03:49:47;;;;;;;5.50;4.88;;;;;;;7.22;100.00;100826.38;4907831;29;20272;-77
2022/09/30 03:52:16;;;;;;;5.70;4.97;;;;;;;7.21;100.00;100828.13;4861060;29;20067;-77
2022/09/30 03:54:54;;;;;;;13.85;5.30;;;;;;;7.22;100.00;100835.16;4847659;29;20231;-77
2022/09/30 03:57:22;;;;;;;22.75;5.07;;;;;;;7.21;100.00;100828.13;4907692;29;20044;-78
2022/09/30 03:59:51;;;;;;;20.77;5.20;;;;;;;7.23;100.00;100830.78;4904045;29;20072;-77
2022/09/30 04:02:19;;;;;;;30.60;5.32;;;;;;;7.22;100.00;100837.75;4885277;29;20052;-77
2022/09/30 04:04:48;;;;;;;18.50;4.93;;;;;;;7.22;100.00;100835.16;4891447;29;20371;-76
2022/09/30 04:07:17;;;;;;;42.47;5.75;;;;;;;7.21;100.00;100837.72;4861928;29;20061;-79
2022/09/30 04:09:46;;;;;;;19.27;5.15;;;;;;;7.19;100.00;100823.72;4865814;29;20055;-77
2022/09/30 04:12:15;;;;;;;42.35;6.15;;;;;;;7.18;100.00;100832.44;4890044;29;20048;-77
2022/09/30 04:14:43;;;;;;;13.77;4.85;;;;;;;7.14;100.00;100831.50;4904380;29;20059;-77
2022/09/30 04:17:12;;;;;;;34.97;4.78;;;;;;;7.13;100.00;100835.00;4889215;29;20055;-77
2022/09/30 04:19:40;;;;;;;56.38;6.55;;;;;;;7.10;100.00;100836.66;4892877;29;20047;-78
2022/09/30 04:22:09;;;;;;;76.40;8.63;;;;;;;7.07;100.00;100831.38;4868242;29;20048;-77
2022/09/30 04:24:38;;;;;;;42.78;5.97;;;;;;;7.06;100.00;100832.25;4864835;29;20051;-77
2022/09/30 04:27:06;;;;;;;7.80;6.75;;;;;;;7.04;100.00;100834.81;4890266;29;20051;-79
2022/09/30 04:29:34;;;;;;;17.90;5.70;;;;;;;7.02;100.00;100834.78;4908560;29;20048;-77
2022/09/30 04:32:03;;;;;;;18.35;5.07;;;;;;;7.02;100.00;100845.28;4853984;29;20528;-77
2022/09/30 04:34:31;;;;;;;32.15;6.18;;;;;;;7.00;100.00;100848.72;4908175;29;20060;-77
2022/09/30 04:37:00;;;;;;;8.45;4.13;;;;;;;6.98;100.00;100851.31;4874585;29;20044;-78
2022/09/30 04:39:28;;;;;;;9.13;5.00;;;;;;;6.96;100.00;100854.78;4840373;29;20277;-78
2022/09/30 04:41:57;;;;;;;23.23;4.72;;;;;;;6.93;100.00;100858.22;4911309;29;20060;-78
2022/09/30 04:44:26;;;;;;;49.58;7.32;;;;;;;6.93;100.00;100862.56;4873937;29;20056;-78
2022/09/30 04:46:54;;;;;;;35.55;6.20;;;;;;;6.91;100.00;100859.91;4871890;29;20048;-78
2022/09/30 04:49:23;;;;;;;67.07;8.55;;;;;;;6.91;100.00;100856.41;4870943;29;20040;-78
2022/09/30 04:51:51;;;;;;;48.40;6.20;;;;;;;6.87;100.00;100854.59;4909454;29;20071;-78
2022/09/30 04:54:20;;;;;;;22.70;4.95;;;;;;;6.87;100.00;100857.22;4867663;29;20286;-78
2022/09/30 04:56:48;;;;;;;23.90;5.38;;;;;;;6.85;100.00;100862.44;4869060;29;20416;-78
2022/09/30 04:59:17;;;;;;;57.33;7.95;;;;;;;6.82;100.00;100868.50;4903335;29;20048;-77
2022/09/30 05:01:45;;;;;;;29.85;6.18;;;;;;;6.81;100.00;100874.59;4893828;29;20048;-77
2022/09/30 05:04:15;;;;;;;11.32;5.07;;;;;;;6.80;100.00;100872.81;4867092;29;20056;-78
2022/09/30 05:06:44;;;;;;;18.53;6.27;;;;;;;6.76;100.00;100873.59;4877525;29;20048;-78
2022/09/30 05:09:12;;;;;;;8.80;5.68;;;;;;;6.75;100.00;100884.06;4866887;29;20028;-77
2022/09/30 05:11:41;;;;;;;21.88;6.63;;;;;;;6.74;100.00;100877.06;4873308;29;20044;-77
2022/09/30 05:14:10;;;;;;;13.52;5.70;;;;;;;6.72;100.00;100871.78;4871032;29;20478;-79
2022/09/30 05:16:38;;;;;;;9.73;5.03;;;;;;;6.71;100.00;100877.00;4866098;29;20063;-77
2022/09/30 05:19:06;;;;;;;11.55;5.60;;;;;;;6.67;100.00;100877.78;4893156;29;20044;-77
2022/09/30 05:21:35;;;;;;;15.05;6.03;;;;;;;6.63;100.00;100882.06;4889198;29;20049;-78
2022/09/30 05:24:03;;;;;;;6.20;5.55;;;;;;;6.62;100.00;100875.97;4875341;29;20056;-77
2022/09/30 05:26:32;;;;;;;7.00;5.38;;;;;;;6.60;100.00;100882.91;4841273;29;20052;-78
2022/09/30 05:29:00;;;;;;;12.48;5.88;;;;;;;6.59;100.00;100880.25;4882464;29;20047;-79
2022/09/30 05:31:28;;;;;;;8.50;6.10;;;;;;;6.59;100.00;100888.09;4866535;29;20051;-77
2022/09/30 05:33:57;;;;;;;8.05;6.65;;;;;;;6.59;100.00;100880.25;4884409;29;20060;-78
2022/09/30 05:36:25;;;;;;;12.85;7.30;;;;;;;6.58;100.00;100874.16;4885355;29;20151;-78
2022/09/30 05:38:54;;;;;;;10.68;6.53;;;;;;;6.59;100.00;100880.25;4870837;29;20040;-77
2022/09/30 05:41:23;;;;;;;6.80;6.20;;;;;;;6.58;100.00;100882.00;4848450;29;20281;-77
2022/09/30 05:43:51;;;;;;;7.18;6.45;;;;;;;6.59;100.00;100894.22;4886115;29;20051;-77
2022/09/30 05:46:20;;;;;;;9.35;5.82;;;;;;;6.61;100.00;100902.13;4891834;29;20639;-77
2022/09/30 05:48:51;;;;;;;8.20;6.05;;;;;;;6.62;100.00;100901.28;4880179;29;20044;-77
2022/09/30 05:51:20;;;;;;;5.55;5.00;;;;;;;6.60;100.00;100903.84;4898576;29;20601;-77
2022/09/30 05:53:50;;;;;;;6.78;5.85;;;;;;;6.60;100.00;100902.97;4868127;29;20502;-76
2022/09/30 05:56:19;;;;;;;8.43;5.75;;;;;;;6.59;100.00;100898.59;4858762;29;20613;-77
2022/09/30 05:58:49;;;;;;;5.60;5.10;;;;;;;6.57;100.00;100893.31;4839151;29;20528;-77
2022/09/30 06:01:17;;;;;;;7.07;6.20;;;;;;;6.56;100.00;100903.75;4887125;29;20044;-79
2022/09/30 06:03:46;;;;;;;5.00;4.60;;;;;;;6.56;100.00;100904.66;4852399;29;20041;-77
2022/09/30 06:06:15;;;;;;;6.40;5.80;;;;;;;6.57;100.00;100913.38;4857078;29;20036;-78
2022/09/30 06:08:44;;;;;;;10.05;6.75;;;;;;;6.58;100.00;100912.53;4845174;29;20064;-78
2022/09/30 06:11:17;;;;;;;5.70;5.20;;;;;;;6.61;100.00;100918.69;4864736;29;20044;-77
2022/09/30 06:13:48;;;;;;;6.85;6.03;;;;;;;6.62;100.00;100915.25;4826551;29;20049;-77
2022/09/30 06:16:18;;;;;;;5.60;5.20;;;;;;;6.63;100.00;100914.41;4858320;29;20080;-77
2022/09/30 06:18:46;;;;;;;6.55;4.95;;;;;;;6.65;100.00;100914.41;4864749;29;20064;-77
2022/09/30 06:21:16;;;;;;;5.80;5.30;;;;;;;6.67;100.00;100907.47;4832860;29;20550;-77
2022/09/30 06:23:45;;;;;;;8.10;5.97;;;;;;;6.67;100.00;100915.31;4870080;29;20037;-77
2022/09/30 06:26:14;;;;;;;6.07;5.57;;;;;;;6.70;100.00;100918.00;4854087;29;20533;-76
2022/09/30 06:28:43;;;;;;;6.15;5.65;;;;;;;6.73;100.00;100923.31;4861406;29;20052;-77
2022/09/30 06:31:12;;;;;;;7.45;6.75;;;;;;;6.77;100.00;100927.78;4869658;29;20522;-77
2022/09/30 06:33:41;;;;;;;6.30;5.70;;;;;;;6.82;100.00;100927.84;4866387;29;20057;-77
2022/09/30 06:36:09;;;;;;;5.95;5.35;;;;;;;6.89;100.00;100929.75;4847621;29;20063;-77
2022/09/30 06:38:38;;;;;;;10.90;6.13;;;;;;;6.96;100.00;100946.47;4863255;29;20045;-77
2022/09/30 06:41:07;;;;;;;9.50;6.80;;;;;;;7.03;100.00;100928.28;4882099;29;20052;-78
2022/09/30 06:43:38;;;;;;;19.17;7.50;;;;;;;7.09;100.00;100935.38;4866248;29;20422;-77
2022/09/30 06:46:13;;;;;;;30.50;7.25;;;;;;;7.18;100.00;100926.78;4847927;29;20048;-77
2022/09/30 06:48:53;;;;;;;41.97;8.27;;;;;;;7.33;100.00;100929.66;4873717;29;20052;-77
2022/09/30 06:51:36;;;;;;;22.23;7.85;;;;;;;7.50;100.00;100935.22;4862239;29;20036;-77
2022/09/30 06:54:07;;;;;;;16.60;8.23;;;;;;;7.63;100.00;100931.06;4878770;29;20048;-77
2022/09/30 06:56:36;;;;;;;9.25;7.03;;;;;;;7.68;100.00;100931.16;4852897;29;20079;-76
2022/09/30 06:59:04;;;;;;;7.50;6.40;;;;;;;7.73;100.00;100943.50;4860768;29;20044;-77
2022/09/30 07:01:33;;;;;;;6.35;5.75;;;;;;;7.75;100.00;100930.38;4844796;29;20041;-77
2022/09/30 07:04:06;;;;;;;6.13;5.57;;;;;;;7.80;100.00;100934.84;4887823;29;20060;-77
2022/09/30 07:06:35;;;;;;;7.22;6.05;;;;;;;7.83;100.00;100934.03;4845769;29;20052;-76
2022/09/30 07:09:05;;;;;;;7.18;6.32;;;;;;;7.87;100.00;100929.69;4858285;29;20060;-77
2022/09/30 07:11:36;;;;;;;6.65;6.05;;;;;;;7.93;100.00;100935.03;4859153;29;20049;-78
2022/09/30 07:14:05;;;;;;;7.95;6.20;;;;;;;7.99;100.00;100937.75;4864680;29;20045;-77
2022/09/30 07:16:34;;;;;;;7.20;6.50;;;;;;;8.07;100.00;100937.84;4834761;29;20057;-77
2022/09/30 07:19:04;;;;;;;6.53;5.93;;;;;;;8.17;100.00;100932.78;4855147;29;20056;-76
2022/09/30 07:21:32;;;;;;;10.13;7.15;;;;;;;8.31;100.00;100937.34;4865943;29;20045;-78
2022/09/30 07:24:01;;;;;;;7.35;6.60;;;;;;;8.45;100.00;100924.41;4842534;29;20041;-77
2022/09/30 07:26:29;;;;;;;7.85;6.25;;;;;;;8.78;100.00;100921.34;4840118;29;20534;-77
2022/09/30 07:28:58;;;;;;;7.07;6.43;;;;;;;9.19;100.00;100918.28;4866251;29;20056;-77
2022/09/30 07:31:27;;;;;;;6.22;5.20;;;;;;;9.39;100.00;100922.84;4849267;29;20037;-77
2022/09/30 07:34:05;;;;;;;6.30;5.75;;;;;;;9.52;100.00;100922.97;4884663;29;20415;-76
2022/09/30 07:36:37;;;;;;;5.78;5.13;;;;;;;9.71;100.00;100916.09;4879095;29;20044;-77
2022/09/30 07:39:08;;;;;;;5.53;4.82;;;;;;;10.09;100.00;100918.16;4864856;29;20499;-77
2022/09/30 07:41:39;;;;;;;4.43;4.03;;;;;;;10.63;100.00;100917.56;4889489;29;20059;-77
2022/09/30 07:44:11;;;;;;;4.80;4.10;;;;;;;11.15;100.00;100912.44;4851018;29;20067;-78
2022/09/30 07:46:42;;;;;;;3.83;3.53;;;;;;;11.66;100.00;100912.47;4833472;29;20666;-76
2022/09/30 07:49:22;;;;;;;4.22;3.47;;;;;;;12.12;100.00;100917.75;4843788;29;20052;-78
2022/09/30 07:51:55;;;;;;;3.70;3.40;;;;;;;12.54;100.00;100922.91;4871914;29;20079;-76
2022/09/30 07:54:27;;;;;;;3.78;3.47;;;;;;;12.94;100.00;100915.69;4879193;29;20052;-78
2022/09/30 07:56:57;;;;;;;3.65;3.35;;;;;;;13.25;100.00;100916.38;4870954;29;20060;-77
2022/09/30 07:59:39;;;;;;;3.60;3.30;;;;;;;13.59;100.00;100918.81;4878887;29;20060;-77
2022/09/30 08:02:14;;;;;;;4.40;3.13;;;;;;;13.91;100.00;100920.28;4835236;29;20033;-77
2022/09/30 08:04:42;;;;;;;3.63;3.35;;;;;;;14.14;100.00;100924.47;4876335;29;20279;-77
2022/09/30 08:07:14;;;;;;;3.65;3.33;;;;;;;14.19;100.00;100918.22;4857329;29;20048;-77
2022/09/30 08:09:42;;;;;;;4.30;3.25;;;;;;;14.37;100.00;100924.25;4864541;29;20541;-77
2022/09/30 08:12:11;;;;;;;3.47;3.20;;;;;;;14.45;100.00;100919.72;4869334;29;20045;-77
2022/09/30 08:14:39;;;;;;;3.42;3.15;;;;;;;14.47;100.00;100925.00;4831800;29;20239;-76
2022/09/30 08:17:07;;;;;;;3.60;3.30;;;;;;;14.52;100.00;100926.72;4839456;29;20065;-76
2022/09/30 08:19:37;;;;;;;3.45;3.05;;;;;;;14.58;100.00;100931.09;4871376;29;20255;-77
2022/09/30 08:22:06;;;;;;;6.00;3.00;;;;;;;14.69;100.00;100933.59;4860695;29;20037;-77
2022/09/30 08:24:35;;;;;;;5.88;3.15;;;;;;;14.79;100.00;100929.94;4881178;29;20291;-77
2022/09/30 08:27:04;;;;;;;3.22;3.03;;;;;;;14.85;100.00;100921.91;4881169;29;20056;-76
2022/09/30 08:29:34;;;;;;;3.05;2.85;;;;;;;14.89;100.00;100925.41;4874567;29;20083;-77
2022/09/30 08:32:22;;;;;;;3.42;3.13;;;;;;;14.88;100.00;100937.78;4852027;29;20037;-78
2022/09/30 08:34:50;;;;;;;4.03;3.10;;;;;;;14.90;100.00;100945.75;4870792;29;20049;-76
2022/09/30 08:37:19;;;;;;;3.08;2.72;;;;;;;14.95;100.00;100928.88;4874008;29;20053;-77
2022/09/30 08:39:47;;;;;;;4.32;2.92;;;;;;;15.09;100.00;100933.97;4871817;29;20057;-76
2022/09/30 08:42:43;;;;;;;4.63;2.85;;;;;;;15.13;100.00;100924.19;4858931;29;20036;-76
2022/09/30 08:45:38;;;;;;;4.22;2.67;;;;;;;15.18;100.00;100919.69;4873763;29;20040;-76
2022/09/30 08:48:38;;;;;;;2.55;2.38;;;;;;;15.23;100.00;100915.19;4843232;29;20043;-76
2022/09/30 08:51:26;;;;;;;2.20;2.00;;;;;;;15.22;100.00;100913.44;4884101;29;20056;-76
2022/09/30 08:53:58;;;;;;;2.72;2.50;;;;;;;15.20;100.00;100909.94;4885485;29;20059;-76
2022/09/30 08:56:30;;;;;;;4.90;2.30;;;;;;;15.17;100.00;100916.16;4845367;29;20400;-76
2022/09/30 08:59:06;;;;;;;2.22;2.03;;;;;;;15.16;100.00;100922.38;4889967;29;20073;-76
2022/09/30 09:01:39;;;;;;;6.88;2.20;;;;;;;15.11;100.00;100926.00;4860780;29;20315;-76
2022/09/30 09:04:08;;;;;;;2.25;2.05;;;;;;;14.99;100.00;100922.59;4837917;29;20056;-77
2022/09/30 09:07:23;;;;;;;2.30;2.10;;;;;;;14.89;100.00;100917.44;4870620;29;20366;-77
2022/09/30 09:10:09;;;;;;;2.90;2.63;;;;;;;14.78;100.00;100921.13;4863321;29;20435;-77
2022/09/30 09:12:51;;;;;;;2.03;1.92;;;;;;;14.64;100.00;100920.41;4854077;29;20036;-77
2022/09/30 09:15:47;;;;;;;5.05;2.38;;;;;;;14.50;100.00;100914.34;4887138;29;20049;-76
2022/09/30 09:18:37;;;;;;;2.40;1.85;;;;;;;14.38;100.00;100923.34;4895169;29;20489;-77
2022/09/30 09:21:34;;;;;;;2.15;1.95;;;;;;;14.33;100.00;100920.75;4860761;29;20044;-77
2022/09/30 09:24:05;;;;;;;2.55;1.88;;;;;;;14.32;100.00;100926.94;4870678;29;20045;-77
2022/09/30 09:26:37;;;;;;;2.78;2.35;;;;;;;14.31;100.00;100913.69;4859771;29;20407;-78
2022/09/30 09:29:34;;;;;;;2.40;2.20;;;;;;;14.28;100.00;100911.97;4879889;29;20049;-77
2022/09/30 09:32:12;;;;;;;4.95;2.47;;;;;;;14.26;100.00;100921.72;4832262;29;20065;-77
2022/09/30 09:34:41;;;;;;;3.55;2.38;;;;;;;14.26;100.00;100918.19;4863038;29;20288;-78
2022/09/30 09:38:23;;;;;;;3.88;2.35;;;;;;;14.27;100.00;100931.41;4815551;29;20045;-76
2022/09/30 09:40:25;;;;;;;2.67;2.15;;;;;;;14.28;100.00;100933.16;4884145;29;20114;-77
2022/09/30 09:42:53;;;;;;;3.15;2.38;;;;;;;14.31;100.00;100932.25;4891789;29;20071;-76
2022/09/30 09:45:32;;;;;;;5.15;2.72;;;;;;;14.33;100.00;100934.00;4845256;29;20041;-77
2022/09/30 09:48:01;;;;;;;3.00;2.80;;;;;;;14.32;100.00;100941.97;4876113;29;20051;-76
2022/09/30 09:50:55;;;;;;;2.97;2.78;;;;;;;14.31;100.00;100937.53;4841733;29;20060;-78
2022/09/30 09:53:57;;;;;;;4.30;3.53;;;;;;;14.33;100.00;100941.97;4881014;29;20052;-77
2022/09/30 09:56:28;;;;;;;5.05;3.30;;;;;;;14.35;100.00;100945.47;4857206;29;20498;-77
2022/09/30 09:59:18;;;;;;;3.58;3.17;;;;;;;14.37;100.00;100927.78;4884827;29;20064;-78
2022/09/30 10:01:52;;;;;;;3.50;3.20;;;;;;;14.39;100.00;100933.06;4881416;29;20075;-77
2022/09/30 10:04:23;;;;;;;;;;;;;;;14.40;100.00;100922.44;4864383;29;20049;-77
2022/09/30 10:07:00;;;;;;;3.75;2.78;;;;;;;14.40;100.00;100925.09;4850892;29;20122;-77
2022/09/30 10:09:42;;;;;;;3.10;2.53;;;;;;;14.47;100.00;100930.31;4873335;29;20112;-77
2022/09/30 10:12:10;;;;;;;3.13;2.40;;;;;;;14.50;100.00;100924.97;4882232;29;20063;-77
2022/09/30 10:14:54;;;;;;;2.83;2.15;;;;;;;14.53;100.00;100928.44;4875872;29;20351;-76
2022/09/30 10:17:36;;;;;;;2.88;2.25;;;;;;;14.59;100.00;100927.53;4857438;29;20052;-77
2022/09/30 10:20:17;;;;;;;3.30;1.70;;;;;;;14.65;100.00;100927.50;4875338;29;20052;-77
2022/09/30 10:22:46;;;;;;;1.98;1.75;;;;;;;14.73;100.00;100930.91;4845504;29;20380;-76
2022/09/30 10:25:23;;;;;;;2.50;2.30;;;;;;;14.82;100.00;100912.22;4869354;29;20064;-76
2022/09/30 10:27:57;;;;;;;1.30;1.30;;;;;;;14.79;100.00;100919.34;4869268;29;20052;-77
2022/09/30 10:30:42;;;;;;;4.00;1.45;;;;;;;14.80;100.00;100915.78;4863841;29;20044;-77
2022/09/30 10:33:18;;;;;;;1.77;1.42;;;;;;;14.82;100.00;100912.22;4889524;29;20045;-77
2022/09/30 10:36:03;;;;;;;3.40;1.10;;;;;;;14.85;100.00;100911.28;4862589;29;20431;-77
2022/09/30 10:38:33;;;;;;;2.47;0.90;;;;;;;14.86;100.00;100913.06;4852473;29;20052;-77
2022/09/30 10:41:04;;;;;;;1.65;1.05;;;;;;;14.87;100.00;100916.59;4854610;29;20521;-77
2022/09/30 10:43:43;;;;;;;1.63;1.00;;;;;;;14.92;100.00;100912.09;4840473;29;20363;-77
2022/09/30 10:46:22;;;;;;;1.00;1.00;;;;;;;14.93;100.00;100908.53;4877657;29;20529;-77
2022/09/30 10:48:56;;;;;;;1.05;0.95;;;;;;;14.96;100.00;100916.47;4859871;29;20055;-77
2022/09/30 10:51:26;;;;;;;0.68;0.68;;;;;;;14.97;100.00;100920.84;4866573;29;20147;-77
2022/09/30 10:54:03;;;;;;;0.60;0.60;;;;;;;15.01;100.00;100906.66;4844798;29;20061;-76
2022/09/30 10:56:43;;;;;;;2.15;0.80;;;;;;;15.04;100.00;100901.31;4874369;29;20057;-78
2022/09/30 10:59:22;;;;;;;1.27;0.88;;;;;;;15.12;100.00;100901.19;4863398;29;21171;-77
2022/09/30 11:01:59;;;;;;;1.25;0.70;;;;;;;15.18;100.00;100907.28;4873911;29;20621;-79
2022/09/30 11:04:38;;;;;;;0.70;0.70;;;;;;;15.23;100.00;100898.38;4851562;29;20038;-78
2022/09/30 11:07:30;;;;;;;2.10;0.63;;;;;;;15.26;100.00;100898.34;4869892;29;20037;-78
2022/09/30 11:10:06;;;;;;;0.70;0.70;;;;;;;15.30;100.00;100892.09;4881727;29;20049;-78
2022/09/30 11:12:38;;;;;;;1.08;1.05;;;;;;;15.31;100.00;100891.16;4870391;29;20161;-78
2022/09/30 11:15:23;;;;;;;0.68;0.68;;;;;;;15.34;100.00;100885.81;4857558;29;20123;-77
2022/09/30 11:18:21;;;;;;;1.10;0.77;;;;;;;15.38;100.00;100891.03;4867941;29;20059;-78
2022/09/30 11:21:11;;;;;;;1.75;0.80;;;;;;;15.42;100.00;100894.53;4845167;29;20056;-78
2022/09/30 11:24:06;;;;;;;1.20;1.20;;;;;;;15.40;100.00;100881.28;4842918;29;20380;-78
2022/09/30 11:26:45;;;;;;;0.80;0.80;;;;;;;15.36;100.00;100881.34;4884222;29;20045;-77
2022/09/30 11:29:40;;;;;;;1.00;1.00;;;;;;;15.38;100.00;100882.22;4865678;29;20074;-78
2022/09/30 11:32:43;;;;;;;1.73;1.63;;;;;;;15.42;100.00;100875.94;4866607;29;20040;-77
2022/09/30 11:35:20;;;;;;;2.42;2.30;;;;;;;15.48;100.00;100880.28;4876738;29;20773;-78
2022/09/30 11:38:07;;;;;;;2.70;2.50;;;;;;;15.50;100.00;100878.47;4867884;29;20055;-78
2022/09/30 11:40:48;;;;;;;2.50;2.30;;;;;;;15.45;100.00;100872.38;4863919;29;20052;-77
2022/09/30 11:44:12;;;;;;;2.60;2.40;;;;;;;15.47;100.00;100866.13;4879517;29;20048;-77
2022/09/30 11:47:15;;;;;;;2.65;2.22;;;;;;;15.55;100.00;100858.03;4848837;29;20048;-77
2022/09/30 11:50:10;;;;;;;2.42;2.25;;;;;;;15.63;100.00;100860.56;4885951;29;20048;-77
2022/09/30 11:53:12;;;;;;;3.38;2.72;;;;;;;15.69;100.00;100863.09;4852421;29;20330;-77
2022/09/30 11:56:15;;;;;;;3.03;1.98;;;;;;;15.72;100.00;100855.94;4847617;29;20048;-77
2022/09/30 11:58:50;;;;;;;1.50;1.40;;;;;;;15.71;100.00;100864.84;4894907;29;20048;-77
2022/09/30 12:01:29;;;;;;;1.40;1.30;;;;;;;15.59;100.00;100854.41;4883754;29;20272;-77
2022/09/30 12:04:01;;;;;;;2.88;1.50;;;;;;;15.46;100.00;100852.88;4867927;29;20052;-77